sensor_id;sensor_type;location;lat;lon;timestamp;P1;durP1;ratioP1;P2;durP2;ratioP2
7875;SDS011;69649;53.712;9.680;2024-01-10T00:00:52;15.43;;;9.97;;
7875;SDS011;69649;53.712;9.680;2024-01-10T00:03:18;17.27;;;9.43;;
7875;SDS011;69649;53.712;9.680;2024-01-10T00:05:43;17.50;;;10.17;;
7875;SDS011;69649;53.712;9.680;2024-01-10T00:08:09;17.00;;;10.40;;
7875;SDS011;69649;53.712;9.680;2024-01-10T00:10:35;16.30;;;9.63;;
7875;SDS011;69649;53.712;9.680;2024-01-10T00:13:01;17.17;;;10.70;;
7875;SDS011;69649;53.712;9.680;2024-01-10T00:15:26;18.70;;;9.73;;
7875;SDS011;69649;53.712;9.680;2024-01-10T00:17:52;16.27;;;9.90;;
7875;SDS011;69649;53.712;9.680;2024-01-10T00:20:18;24.63;;;10.07;;
7875;SDS011;69649;53.712;9.680;2024-01-10T00:25:30;23.20;;;10.83;;
7875;SDS011;69649;53.712;9.680;2024-01-10T00:27:56;19.77;;;11.87;;
7875;SDS011;69649;53.712;9.680;2024-01-10T00:30:21;19.10;;;9.57;;
7875;SDS011;69649;53.712;9.680;2024-01-10T00:35:33;16.30;;;9.73;;
7875;SDS011;69649;53.712;9.680;2024-01-10T00:37:59;13.20;;;9.70;;
7875;SDS011;69649;53.712;9.680;2024-01-10T00:40:25;14.53;;;8.33;;
7875;SDS011;69649;53.712;9.680;2024-01-10T00:42:51;12.47;;;8.03;;
7875;SDS011;69649;53.712;9.680;2024-01-10T00:45:16;23.87;;;9.13;;
7875;SDS011;69649;53.712;9.680;2024-01-10T00:47:42;15.70;;;8.60;;
7875;SDS011;69649;53.712;9.680;2024-01-10T00:50:08;12.50;;;7.93;;
7875;SDS011;69649;53.712;9.680;2024-01-10T00:52:34;14.07;;;8.33;;
7875;SDS011;69649;53.712;9.680;2024-01-10T00:55:01;16.63;;;10.00;;
7875;SDS011;69649;53.712;9.680;2024-01-10T00:57:27;14.07;;;9.20;;
7875;SDS011;69649;53.712;9.680;2024-01-10T00:59:52;17.00;;;8.80;;
7875;SDS011;69649;53.712;9.680;2024-01-10T01:02:18;16.40;;;8.80;;
7875;SDS011;69649;53.712;9.680;2024-01-10T01:04:44;16.73;;;9.97;;
7875;SDS011;69649;53.712;9.680;2024-01-10T01:07:10;14.87;;;8.93;;
7875;SDS011;69649;53.712;9.680;2024-01-10T01:12:21;17.80;;;10.70;;
7875;SDS011;69649;53.712;9.680;2024-01-10T01:14:47;18.00;;;10.77;;
7875;SDS011;69649;53.712;9.680;2024-01-10T01:17:12;21.57;;;9.47;;
7875;SDS011;69649;53.712;9.680;2024-01-10T01:22:24;18.13;;;9.33;;
7875;SDS011;69649;53.712;9.680;2024-01-10T01:24:50;19.60;;;10.13;;
7875;SDS011;69649;53.712;9.680;2024-01-10T01:27:16;17.50;;;9.80;;
7875;SDS011;69649;53.712;9.680;2024-01-10T01:29:42;15.33;;;8.80;;
7875;SDS011;69649;53.712;9.680;2024-01-10T01:32:07;20.33;;;10.43;;
7875;SDS011;69649;53.712;9.680;2024-01-10T01:34:33;13.33;;;8.40;;
7875;SDS011;69649;53.712;9.680;2024-01-10T01:36:59;13.80;;;9.33;;
7875;SDS011;69649;53.712;9.680;2024-01-10T01:39:26;18.03;;;9.20;;
7875;SDS011;69649;53.712;9.680;2024-01-10T01:41:52;16.47;;;11.07;;
7875;SDS011;69649;53.712;9.680;2024-01-10T01:44:17;18.93;;;9.57;;
7875;SDS011;69649;53.712;9.680;2024-01-10T01:46:43;33.57;;;11.00;;
7875;SDS011;69649;53.712;9.680;2024-01-10T01:49:11;13.70;;;9.77;;
7875;SDS011;69649;53.712;9.680;2024-01-10T01:51:37;21.37;;;10.43;;
7875;SDS011;69649;53.712;9.680;2024-01-10T01:54:06;15.20;;;9.67;;
7875;SDS011;69649;53.712;9.680;2024-01-10T01:56:39;18.00;;;10.07;;
7875;SDS011;69649;53.712;9.680;2024-01-10T01:59:03;20.60;;;10.73;;
7875;SDS011;69649;53.712;9.680;2024-01-10T02:01:29;14.93;;;8.90;;
7875;SDS011;69649;53.712;9.680;2024-01-10T02:03:56;18.53;;;9.77;;
7875;SDS011;69649;53.712;9.680;2024-01-10T02:06:22;27.40;;;9.97;;
7875;SDS011;69649;53.712;9.680;2024-01-10T02:08:48;20.80;;;11.33;;
7875;SDS011;69649;53.712;9.680;2024-01-10T02:11:14;15.43;;;8.83;;
7875;SDS011;69649;53.712;9.680;2024-01-10T02:13:40;18.97;;;9.70;;
7875;SDS011;69649;53.712;9.680;2024-01-10T02:16:06;11.23;;;8.57;;
7875;SDS011;69649;53.712;9.680;2024-01-10T02:18:33;12.63;;;8.77;;
7875;SDS011;69649;53.712;9.680;2024-01-10T02:21:00;15.17;;;9.93;;
7875;SDS011;69649;53.712;9.680;2024-01-10T02:23:26;12.40;;;8.23;;
7875;SDS011;69649;53.712;9.680;2024-01-10T02:25:52;13.07;;;8.47;;
7875;SDS011;69649;53.712;9.680;2024-01-10T02:28:18;17.30;;;9.53;;
7875;SDS011;69649;53.712;9.680;2024-01-10T02:30:44;14.97;;;9.43;;
7875;SDS011;69649;53.712;9.680;2024-01-10T02:33:09;13.77;;;9.23;;
7875;SDS011;69649;53.712;9.680;2024-01-10T02:35:35;12.73;;;8.40;;
7875;SDS011;69649;53.712;9.680;2024-01-10T02:38:01;12.17;;;8.17;;
7875;SDS011;69649;53.712;9.680;2024-01-10T02:40:27;14.33;;;9.70;;
7875;SDS011;69649;53.712;9.680;2024-01-10T02:42:53;13.37;;;8.50;;
7875;SDS011;69649;53.712;9.680;2024-01-10T02:45:18;12.77;;;8.13;;
7875;SDS011;69649;53.712;9.680;2024-01-10T02:47:44;10.30;;;7.07;;
7875;SDS011;69649;53.712;9.680;2024-01-10T02:50:10;9.70;;;7.70;;
7875;SDS011;69649;53.712;9.680;2024-01-10T02:52:36;10.63;;;7.30;;
7875;SDS011;69649;53.712;9.680;2024-01-10T02:55:02;9.97;;;7.37;;
7875;SDS011;69649;53.712;9.680;2024-01-10T02:57:28;9.83;;;6.23;;
7875;SDS011;69649;53.712;9.680;2024-01-10T02:59:54;7.90;;;7.07;;
7875;SDS011;69649;53.712;9.680;2024-01-10T03:02:20;9.60;;;7.03;;
7875;SDS011;69649;53.712;9.680;2024-01-10T03:04:46;11.40;;;7.50;;
7875;SDS011;69649;53.712;9.680;2024-01-10T03:07:13;10.93;;;8.50;;
7875;SDS011;69649;53.712;9.680;2024-01-10T03:09:39;12.20;;;8.00;;
7875;SDS011;69649;53.712;9.680;2024-01-10T03:12:04;11.03;;;6.80;;
7875;SDS011;69649;53.712;9.680;2024-01-10T03:14:30;12.53;;;7.33;;
7875;SDS011;69649;53.712;9.680;2024-01-10T03:16:56;9.80;;;7.97;;
7875;SDS011;69649;53.712;9.680;2024-01-10T03:19:22;11.03;;;7.23;;
7875;SDS011;69649;53.712;9.680;2024-01-10T03:21:47;10.97;;;6.90;;
7875;SDS011;69649;53.712;9.680;2024-01-10T03:24:13;10.23;;;7.93;;
7875;SDS011;69649;53.712;9.680;2024-01-10T03:26:39;13.57;;;7.20;;
7875;SDS011;69649;53.712;9.680;2024-01-10T03:29:04;11.17;;;7.50;;
7875;SDS011;69649;53.712;9.680;2024-01-10T03:31:30;13.53;;;7.87;;
7875;SDS011;69649;53.712;9.680;2024-01-10T03:33:57;11.83;;;7.70;;
7875;SDS011;69649;53.712;9.680;2024-01-10T03:36:23;9.30;;;7.07;;
7875;SDS011;69649;53.712;9.680;2024-01-10T03:38:50;11.10;;;7.47;;
7875;SDS011;69649;53.712;9.680;2024-01-10T03:41:18;10.67;;;7.77;;
7875;SDS011;69649;53.712;9.680;2024-01-10T03:43:45;11.03;;;7.60;;
7875;SDS011;69649;53.712;9.680;2024-01-10T03:46:12;14.10;;;8.57;;
7875;SDS011;69649;53.712;9.680;2024-01-10T03:48:38;11.27;;;8.13;;
7875;SDS011;69649;53.712;9.680;2024-01-10T03:51:09;11.97;;;8.53;;
7875;SDS011;69649;53.712;9.680;2024-01-10T03:53:35;12.97;;;8.37;;
7875;SDS011;69649;53.712;9.680;2024-01-10T03:56:03;17.67;;;10.63;;
7875;SDS011;69649;53.712;9.680;2024-01-10T03:58:31;14.97;;;8.60;;
7875;SDS011;69649;53.712;9.680;2024-01-10T04:00:57;13.70;;;8.53;;
7875;SDS011;69649;53.712;9.680;2024-01-10T04:03:22;11.73;;;8.10;;
7875;SDS011;69649;53.712;9.680;2024-01-10T04:05:48;10.70;;;7.33;;
7875;SDS011;69649;53.712;9.680;2024-01-10T04:08:14;13.27;;;8.70;;
7875;SDS011;69649;53.712;9.680;2024-01-10T04:10:40;14.97;;;9.07;;
7875;SDS011;69649;53.712;9.680;2024-01-10T04:13:06;14.20;;;8.57;;
7875;SDS011;69649;53.712;9.680;2024-01-10T04:15:32;14.03;;;7.97;;
7875;SDS011;69649;53.712;9.680;2024-01-10T04:17:58;12.27;;;7.67;;
7875;SDS011;69649;53.712;9.680;2024-01-10T04:20:23;11.03;;;7.83;;
7875;SDS011;69649;53.712;9.680;2024-01-10T04:22:49;9.43;;;7.07;;
7875;SDS011;69649;53.712;9.680;2024-01-10T04:25:15;10.30;;;7.33;;
7875;SDS011;69649;53.712;9.680;2024-01-10T04:27:41;11.73;;;9.37;;
7875;SDS011;69649;53.712;9.680;2024-01-10T04:30:07;13.03;;;7.93;;
7875;SDS011;69649;53.712;9.680;2024-01-10T04:32:33;14.20;;;10.47;;
7875;SDS011;69649;53.712;9.680;2024-01-10T04:35:00;14.47;;;7.80;;
7875;SDS011;69649;53.712;9.680;2024-01-10T04:37:26;11.33;;;7.67;;
7875;SDS011;69649;53.712;9.680;2024-01-10T04:39:52;10.47;;;7.90;;
7875;SDS011;69649;53.712;9.680;2024-01-10T04:42:17;9.97;;;7.17;;
7875;SDS011;69649;53.712;9.680;2024-01-10T04:44:43;10.37;;;7.60;;
7875;SDS011;69649;53.712;9.680;2024-01-10T04:47:09;12.07;;;8.00;;
7875;SDS011;69649;53.712;9.680;2024-01-10T04:49:35;9.73;;;7.00;;
7875;SDS011;69649;53.712;9.680;2024-01-10T04:52:01;9.67;;;7.07;;
7875;SDS011;69649;53.712;9.680;2024-01-10T04:54:27;9.03;;;7.17;;
7875;SDS011;69649;53.712;9.680;2024-01-10T04:56:52;9.53;;;6.27;;
7875;SDS011;69649;53.712;9.680;2024-01-10T04:59:18;9.80;;;7.10;;
7875;SDS011;69649;53.712;9.680;2024-01-10T05:01:44;9.00;;;7.10;;
7875;SDS011;69649;53.712;9.680;2024-01-10T05:04:10;7.30;;;6.27;;
7875;SDS011;69649;53.712;9.680;2024-01-10T05:06:36;10.70;;;6.67;;
7875;SDS011;69649;53.712;9.680;2024-01-10T05:09:02;13.03;;;7.20;;
7875;SDS011;69649;53.712;9.680;2024-01-10T05:11:29;8.30;;;6.37;;
7875;SDS011;69649;53.712;9.680;2024-01-10T05:13:55;9.13;;;6.20;;
7875;SDS011;69649;53.712;9.680;2024-01-10T05:16:21;8.57;;;6.70;;
7875;SDS011;69649;53.712;9.680;2024-01-10T05:18:47;7.93;;;7.13;;
7875;SDS011;69649;53.712;9.680;2024-01-10T05:21:13;10.50;;;7.13;;
7875;SDS011;69649;53.712;9.680;2024-01-10T05:23:38;10.33;;;7.17;;
7875;SDS011;69649;53.712;9.680;2024-01-10T05:26:05;9.93;;;6.90;;
7875;SDS011;69649;53.712;9.680;2024-01-10T05:28:31;13.27;;;8.97;;
7875;SDS011;69649;53.712;9.680;2024-01-10T05:30:57;9.57;;;7.37;;
7875;SDS011;69649;53.712;9.680;2024-01-10T05:33:23;10.17;;;7.57;;
7875;SDS011;69649;53.712;9.680;2024-01-10T05:38:38;7.97;;;6.40;;
7875;SDS011;69649;53.712;9.680;2024-01-10T05:41:04;10.77;;;7.43;;
7875;SDS011;69649;53.712;9.680;2024-01-10T05:43:29;8.83;;;6.73;;
7875;SDS011;69649;53.712;9.680;2024-01-10T05:45:55;11.80;;;7.07;;
7875;SDS011;69649;53.712;9.680;2024-01-10T05:48:21;17.37;;;9.10;;
7875;SDS011;69649;53.712;9.680;2024-01-10T05:53:32;7.90;;;6.57;;
7875;SDS011;69649;53.712;9.680;2024-01-10T05:55:58;6.03;;;5.57;;
7875;SDS011;69649;53.712;9.680;2024-01-10T05:58:24;8.83;;;6.20;;
7875;SDS011;69649;53.712;9.680;2024-01-10T06:00:50;10.23;;;7.23;;
7875;SDS011;69649;53.712;9.680;2024-01-10T06:03:16;8.20;;;5.57;;
7875;SDS011;69649;53.712;9.680;2024-01-10T06:08:27;9.63;;;7.10;;
7875;SDS011;69649;53.712;9.680;2024-01-10T06:10:53;9.73;;;7.50;;
7875;SDS011;69649;53.712;9.680;2024-01-10T06:13:19;6.63;;;5.60;;
7875;SDS011;69649;53.712;9.680;2024-01-10T06:15:45;9.57;;;6.30;;
7875;SDS011;69649;53.712;9.680;2024-01-10T06:18:11;16.40;;;8.93;;
7875;SDS011;69649;53.712;9.680;2024-01-10T06:20:36;14.73;;;9.83;;
7875;SDS011;69649;53.712;9.680;2024-01-10T06:23:04;11.47;;;8.47;;
7875;SDS011;69649;53.712;9.680;2024-01-10T06:25:30;15.07;;;8.53;;
7875;SDS011;69649;53.712;9.680;2024-01-10T06:30:41;14.40;;;8.83;;
7875;SDS011;69649;53.712;9.680;2024-01-10T06:33:07;16.07;;;8.20;;
7875;SDS011;69649;53.712;9.680;2024-01-10T06:35:33;16.63;;;9.10;;
7875;SDS011;69649;53.712;9.680;2024-01-10T06:37:59;15.33;;;8.17;;
7875;SDS011;69649;53.712;9.680;2024-01-10T06:40:27;13.10;;;8.07;;
7875;SDS011;69649;53.712;9.680;2024-01-10T06:42:53;12.17;;;7.70;;
7875;SDS011;69649;53.712;9.680;2024-01-10T06:45:18;14.37;;;8.60;;
7875;SDS011;69649;53.712;9.680;2024-01-10T06:47:45;10.43;;;7.47;;
7875;SDS011;69649;53.712;9.680;2024-01-10T06:50:11;14.37;;;8.33;;
7875;SDS011;69649;53.712;9.680;2024-01-10T06:52:36;13.37;;;6.77;;
7875;SDS011;69649;53.712;9.680;2024-01-10T06:55:03;11.80;;;7.70;;
7875;SDS011;69649;53.712;9.680;2024-01-10T06:57:29;10.73;;;8.03;;
7875;SDS011;69649;53.712;9.680;2024-01-10T06:59:55;12.03;;;7.73;;
7875;SDS011;69649;53.712;9.680;2024-01-10T07:02:22;9.97;;;7.00;;
7875;SDS011;69649;53.712;9.680;2024-01-10T07:04:48;10.43;;;7.53;;
7875;SDS011;69649;53.712;9.680;2024-01-10T07:07:14;11.93;;;6.93;;
7875;SDS011;69649;53.712;9.680;2024-01-10T07:09:42;12.70;;;7.47;;
7875;SDS011;69649;53.712;9.680;2024-01-10T07:12:08;13.13;;;7.17;;
7875;SDS011;69649;53.712;9.680;2024-01-10T07:14:33;11.07;;;6.63;;
7875;SDS011;69649;53.712;9.680;2024-01-10T07:16:59;13.20;;;6.77;;
7875;SDS011;69649;53.712;9.680;2024-01-10T07:19:25;8.30;;;7.03;;
7875;SDS011;69649;53.712;9.680;2024-01-10T07:21:51;11.57;;;6.90;;
7875;SDS011;69649;53.712;9.680;2024-01-10T07:24:16;15.07;;;7.93;;
7875;SDS011;69649;53.712;9.680;2024-01-10T07:26:42;9.20;;;6.57;;
7875;SDS011;69649;53.712;9.680;2024-01-10T07:29:08;8.73;;;6.97;;
7875;SDS011;69649;53.712;9.680;2024-01-10T07:31:34;10.97;;;7.63;;
7875;SDS011;69649;53.712;9.680;2024-01-10T07:34:00;10.20;;;7.47;;
7875;SDS011;69649;53.712;9.680;2024-01-10T07:36:26;11.50;;;6.97;;
7875;SDS011;69649;53.712;9.680;2024-01-10T07:38:52;9.53;;;6.93;;
7875;SDS011;69649;53.712;9.680;2024-01-10T07:41:18;13.30;;;8.50;;
7875;SDS011;69649;53.712;9.680;2024-01-10T07:43:46;13.43;;;8.03;;
7875;SDS011;69649;53.712;9.680;2024-01-10T07:48:52;10.50;;;6.97;;
7875;SDS011;69649;53.712;9.680;2024-01-10T07:51:18;9.83;;;8.13;;
7875;SDS011;69649;53.712;9.680;2024-01-10T07:53:45;12.60;;;7.87;;
7875;SDS011;69649;53.712;9.680;2024-01-10T07:56:10;9.17;;;7.53;;
7875;SDS011;69649;53.712;9.680;2024-01-10T07:58:38;17.47;;;9.00;;
7875;SDS011;69649;53.712;9.680;2024-01-10T08:01:04;11.13;;;8.40;;
7875;SDS011;69649;53.712;9.680;2024-01-10T08:03:30;10.73;;;7.63;;
7875;SDS011;69649;53.712;9.680;2024-01-10T08:05:55;12.23;;;9.30;;
7875;SDS011;69649;53.712;9.680;2024-01-10T08:08:21;6.87;;;5.90;;
7875;SDS011;69649;53.712;9.680;2024-01-10T08:10:47;15.70;;;7.17;;
7875;SDS011;69649;53.712;9.680;2024-01-10T08:13:13;9.97;;;7.53;;
7875;SDS011;69649;53.712;9.680;2024-01-10T08:15:39;11.60;;;7.23;;
7875;SDS011;69649;53.712;9.680;2024-01-10T08:18:05;11.37;;;7.17;;
7875;SDS011;69649;53.712;9.680;2024-01-10T08:20:32;7.97;;;6.30;;
7875;SDS011;69649;53.712;9.680;2024-01-10T08:22:58;9.83;;;7.13;;
7875;SDS011;69649;53.712;9.680;2024-01-10T08:25:24;10.67;;;7.20;;
7875;SDS011;69649;53.712;9.680;2024-01-10T08:27:50;10.47;;;7.03;;
7875;SDS011;69649;53.712;9.680;2024-01-10T08:30:18;10.53;;;7.83;;
7875;SDS011;69649;53.712;9.680;2024-01-10T08:32:44;8.90;;;6.70;;
7875;SDS011;69649;53.712;9.680;2024-01-10T08:35:10;10.00;;;6.60;;
7875;SDS011;69649;53.712;9.680;2024-01-10T08:37:36;10.77;;;7.73;;
7875;SDS011;69649;53.712;9.680;2024-01-10T08:40:03;10.07;;;6.70;;
7875;SDS011;69649;53.712;9.680;2024-01-10T08:42:31;10.30;;;7.53;;
7875;SDS011;69649;53.712;9.680;2024-01-10T08:44:58;8.30;;;6.60;;
7875;SDS011;69649;53.712;9.680;2024-01-10T08:47:23;8.43;;;6.93;;
7875;SDS011;69649;53.712;9.680;2024-01-10T08:49:49;11.63;;;7.37;;
7875;SDS011;69649;53.712;9.680;2024-01-10T08:52:16;9.00;;;7.50;;
7875;SDS011;69649;53.712;9.680;2024-01-10T08:54:42;10.57;;;6.73;;
7875;SDS011;69649;53.712;9.680;2024-01-10T08:57:08;9.97;;;7.27;;
7875;SDS011;69649;53.712;9.680;2024-01-10T08:59:34;8.50;;;6.10;;
7875;SDS011;69649;53.712;9.680;2024-01-10T09:01:59;9.67;;;8.50;;
7875;SDS011;69649;53.712;9.680;2024-01-10T09:07:11;8.27;;;6.37;;
7875;SDS011;69649;53.712;9.680;2024-01-10T09:09:37;7.60;;;6.60;;
7875;SDS011;69649;53.712;9.680;2024-01-10T09:12:03;8.47;;;7.67;;
7875;SDS011;69649;53.712;9.680;2024-01-10T09:14:29;7.90;;;6.43;;
7875;SDS011;69649;53.712;9.680;2024-01-10T09:16:55;8.53;;;7.23;;
7875;SDS011;69649;53.712;9.680;2024-01-10T09:19:21;9.70;;;6.83;;
7875;SDS011;69649;53.712;9.680;2024-01-10T09:21:46;8.97;;;7.47;;
7875;SDS011;69649;53.712;9.680;2024-01-10T09:24:13;7.70;;;6.70;;
7875;SDS011;69649;53.712;9.680;2024-01-10T09:26:40;7.37;;;6.43;;
7875;SDS011;69649;53.712;9.680;2024-01-10T09:29:06;9.73;;;6.97;;
7875;SDS011;69649;53.712;9.680;2024-01-10T09:31:32;12.20;;;6.73;;
7875;SDS011;69649;53.712;9.680;2024-01-10T09:33:58;7.33;;;6.23;;
7875;SDS011;69649;53.712;9.680;2024-01-10T09:36:24;8.23;;;7.33;;
7875;SDS011;69649;53.712;9.680;2024-01-10T09:38:50;6.77;;;6.07;;
7875;SDS011;69649;53.712;9.680;2024-01-10T09:41:16;12.83;;;6.50;;
7875;SDS011;69649;53.712;9.680;2024-01-10T09:43:42;6.97;;;6.20;;
7875;SDS011;69649;53.712;9.680;2024-01-10T09:46:08;7.33;;;6.30;;
7875;SDS011;69649;53.712;9.680;2024-01-10T09:51:21;6.97;;;5.30;;
7875;SDS011;69649;53.712;9.680;2024-01-10T09:53:48;7.73;;;6.70;;
7875;SDS011;69649;53.712;9.680;2024-01-10T09:56:16;6.43;;;5.60;;
7875;SDS011;69649;53.712;9.680;2024-01-10T09:58:45;8.20;;;6.60;;
7875;SDS011;69649;53.712;9.680;2024-01-10T10:01:13;9.47;;;6.70;;
7875;SDS011;69649;53.712;9.680;2024-01-10T10:03:40;8.17;;;6.17;;
7875;SDS011;69649;53.712;9.680;2024-01-10T10:06:08;8.13;;;6.23;;
7875;SDS011;69649;53.712;9.680;2024-01-10T10:08:34;8.20;;;5.70;;
7875;SDS011;69649;53.712;9.680;2024-01-10T10:11:00;7.83;;;7.00;;
7875;SDS011;69649;53.712;9.680;2024-01-10T10:15:58;8.73;;;6.57;;
7875;SDS011;69649;53.712;9.680;2024-01-10T10:18:25;9.43;;;6.73;;
7875;SDS011;69649;53.712;9.680;2024-01-10T10:21:05;7.70;;;6.80;;
7875;SDS011;69649;53.712;9.680;2024-01-10T10:23:33;9.17;;;6.93;;
7875;SDS011;69649;53.712;9.680;2024-01-10T10:26:01;10.27;;;8.13;;
7875;SDS011;69649;53.712;9.680;2024-01-10T10:28:39;12.67;;;7.40;;
7875;SDS011;69649;53.712;9.680;2024-01-10T10:33:52;9.40;;;7.50;;
7875;SDS011;69649;53.712;9.680;2024-01-10T10:36:18;9.17;;;6.87;;
7875;SDS011;69649;53.712;9.680;2024-01-10T10:38:46;11.13;;;7.20;;
7875;SDS011;69649;53.712;9.680;2024-01-10T10:41:14;26.30;;;11.80;;
7875;SDS011;69649;53.712;9.680;2024-01-10T10:43:40;9.27;;;6.40;;
7875;SDS011;69649;53.712;9.680;2024-01-10T10:46:08;9.17;;;6.33;;
7875;SDS011;69649;53.712;9.680;2024-01-10T10:48:37;6.87;;;6.07;;
7875;SDS011;69649;53.712;9.680;2024-01-10T10:51:04;6.63;;;5.63;;
7875;SDS011;69649;53.712;9.680;2024-01-10T10:53:39;8.77;;;6.73;;
7875;SDS011;69649;53.712;9.680;2024-01-10T10:56:03;7.57;;;6.13;;
7875;SDS011;69649;53.712;9.680;2024-01-10T10:58:31;6.73;;;6.03;;
7875;SDS011;69649;53.712;9.680;2024-01-10T11:01:18;9.40;;;6.27;;
7875;SDS011;69649;53.712;9.680;2024-01-10T11:03:44;8.20;;;6.17;;
7875;SDS011;69649;53.712;9.680;2024-01-10T11:06:12;8.07;;;6.57;;
7875;SDS011;69649;53.712;9.680;2024-01-10T11:08:46;8.90;;;6.60;;
7875;SDS011;69649;53.712;9.680;2024-01-10T11:11:34;10.97;;;6.40;;
7875;SDS011;69649;53.712;9.680;2024-01-10T11:19:43;9.57;;;6.67;;
7875;SDS011;69649;53.712;9.680;2024-01-10T11:24:43;8.90;;;6.20;;
7875;SDS011;69649;53.712;9.680;2024-01-10T11:27:10;8.10;;;6.00;;
7875;SDS011;69649;53.712;9.680;2024-01-10T11:29:37;7.07;;;5.67;;
7875;SDS011;69649;53.712;9.680;2024-01-10T11:32:17;10.57;;;6.87;;
7875;SDS011;69649;53.712;9.680;2024-01-10T11:34:49;7.90;;;6.87;;
7875;SDS011;69649;53.712;9.680;2024-01-10T11:37:31;10.57;;;7.87;;
7875;SDS011;69649;53.712;9.680;2024-01-10T11:40:07;9.70;;;6.63;;
7875;SDS011;69649;53.712;9.680;2024-01-10T11:42:42;13.67;;;7.00;;
7875;SDS011;69649;53.712;9.680;2024-01-10T11:45:09;9.43;;;6.83;;
7875;SDS011;69649;53.712;9.680;2024-01-10T11:47:41;9.67;;;6.77;;
7875;SDS011;69649;53.712;9.680;2024-01-10T11:50:07;8.03;;;6.30;;
7875;SDS011;69649;53.712;9.680;2024-01-10T11:52:36;10.00;;;6.60;;
7875;SDS011;69649;53.712;9.680;2024-01-10T11:55:02;10.53;;;7.07;;
7875;SDS011;69649;53.712;9.680;2024-01-10T11:57:31;8.93;;;7.20;;
7875;SDS011;69649;53.712;9.680;2024-01-10T11:59:59;9.67;;;6.37;;
7875;SDS011;69649;53.712;9.680;2024-01-10T12:02:26;11.50;;;7.50;;
7875;SDS011;69649;53.712;9.680;2024-01-10T12:04:53;7.30;;;5.43;;
7875;SDS011;69649;53.712;9.680;2024-01-10T12:07:19;6.03;;;5.40;;
7875;SDS011;69649;53.712;9.680;2024-01-10T12:09:46;7.60;;;6.27;;
7875;SDS011;69649;53.712;9.680;2024-01-10T12:12:12;9.03;;;6.27;;
7875;SDS011;69649;53.712;9.680;2024-01-10T12:14:38;10.77;;;7.33;;
7875;SDS011;69649;53.712;9.680;2024-01-10T12:17:05;7.07;;;5.93;;
7875;SDS011;69649;53.712;9.680;2024-01-10T12:19:36;7.97;;;6.10;;
7875;SDS011;69649;53.712;9.680;2024-01-10T12:22:03;9.50;;;6.67;;
7875;SDS011;69649;53.712;9.680;2024-01-10T12:24:30;7.13;;;5.77;;
7875;SDS011;69649;53.712;9.680;2024-01-10T12:26:57;8.20;;;6.63;;
7875;SDS011;69649;53.712;9.680;2024-01-10T12:29:23;11.90;;;6.47;;
7875;SDS011;69649;53.712;9.680;2024-01-10T12:31:50;11.40;;;8.10;;
7875;SDS011;69649;53.712;9.680;2024-01-10T12:34:17;7.33;;;6.47;;
7875;SDS011;69649;53.712;9.680;2024-01-10T12:36:42;7.93;;;6.73;;
7875;SDS011;69649;53.712;9.680;2024-01-10T12:39:09;7.43;;;5.70;;
7875;SDS011;69649;53.712;9.680;2024-01-10T12:41:36;8.10;;;5.93;;
7875;SDS011;69649;53.712;9.680;2024-01-10T12:44:02;7.40;;;5.67;;
7875;SDS011;69649;53.712;9.680;2024-01-10T12:46:29;7.63;;;5.83;;
7875;SDS011;69649;53.712;9.680;2024-01-10T12:49:00;7.40;;;5.43;;
7875;SDS011;69649;53.712;9.680;2024-01-10T12:51:33;7.17;;;6.40;;
7875;SDS011;69649;53.712;9.680;2024-01-10T12:54:02;7.43;;;6.07;;
7875;SDS011;69649;53.712;9.680;2024-01-10T12:59:15;8.00;;;6.07;;
7875;SDS011;69649;53.712;9.680;2024-01-10T13:01:41;8.33;;;5.47;;
7875;SDS011;69649;53.712;9.680;2024-01-10T13:04:07;8.33;;;6.10;;
7875;SDS011;69649;53.712;9.680;2024-01-10T13:06:33;8.60;;;5.90;;
7875;SDS011;69649;53.712;9.680;2024-01-10T13:08:59;7.57;;;5.50;;
7875;SDS011;69649;53.712;9.680;2024-01-10T13:11:25;7.30;;;5.20;;
7875;SDS011;69649;53.712;9.680;2024-01-10T13:13:50;6.43;;;5.60;;
7875;SDS011;69649;53.712;9.680;2024-01-10T13:16:16;5.57;;;4.93;;
7875;SDS011;69649;53.712;9.680;2024-01-10T13:18:42;6.33;;;5.03;;
7875;SDS011;69649;53.712;9.680;2024-01-10T13:21:08;8.73;;;5.93;;
7875;SDS011;69649;53.712;9.680;2024-01-10T13:23:36;7.80;;;5.27;;
7875;SDS011;69649;53.712;9.680;2024-01-10T13:26:01;7.13;;;5.70;;
7875;SDS011;69649;53.712;9.680;2024-01-10T13:28:27;8.33;;;5.30;;
7875;SDS011;69649;53.712;9.680;2024-01-10T13:30:54;5.63;;;5.10;;
7875;SDS011;69649;53.712;9.680;2024-01-10T13:33:23;7.70;;;5.67;;
7875;SDS011;69649;53.712;9.680;2024-01-10T13:35:48;7.10;;;5.70;;
7875;SDS011;69649;53.712;9.680;2024-01-10T13:38:15;6.03;;;5.43;;
7875;SDS011;69649;53.712;9.680;2024-01-10T13:40:41;9.00;;;6.00;;
7875;SDS011;69649;53.712;9.680;2024-01-10T13:43:07;10.83;;;5.93;;
7875;SDS011;69649;53.712;9.680;2024-01-10T13:45:32;6.60;;;5.77;;
7875;SDS011;69649;53.712;9.680;2024-01-10T13:47:58;7.10;;;6.40;;
7875;SDS011;69649;53.712;9.680;2024-01-10T13:50:25;9.07;;;6.03;;
7875;SDS011;69649;53.712;9.680;2024-01-10T13:52:52;10.03;;;6.77;;
7875;SDS011;69649;53.712;9.680;2024-01-10T13:55:19;11.50;;;8.07;;
7875;SDS011;69649;53.712;9.680;2024-01-10T13:57:46;9.77;;;6.77;;
7875;SDS011;69649;53.712;9.680;2024-01-10T14:00:12;11.20;;;7.27;;
7875;SDS011;69649;53.712;9.680;2024-01-10T14:02:44;9.73;;;6.83;;
7875;SDS011;69649;53.712;9.680;2024-01-10T14:05:08;10.77;;;6.97;;
7875;SDS011;69649;53.712;9.680;2024-01-10T14:07:35;8.40;;;7.37;;
7875;SDS011;69649;53.712;9.680;2024-01-10T14:10:02;14.40;;;7.60;;
7875;SDS011;69649;53.712;9.680;2024-01-10T14:12:28;13.73;;;6.87;;
7875;SDS011;69649;53.712;9.680;2024-01-10T14:14:54;9.93;;;6.60;;
7875;SDS011;69649;53.712;9.680;2024-01-10T14:17:21;13.03;;;7.17;;
7875;SDS011;69649;53.712;9.680;2024-01-10T14:19:47;8.00;;;6.17;;
7875;SDS011;69649;53.712;9.680;2024-01-10T14:22:15;8.83;;;7.50;;
7875;SDS011;69649;53.712;9.680;2024-01-10T14:24:43;10.60;;;7.47;;
7875;SDS011;69649;53.712;9.680;2024-01-10T14:27:09;8.23;;;6.23;;
7875;SDS011;69649;53.712;9.680;2024-01-10T14:29:35;11.50;;;7.53;;
7875;SDS011;69649;53.712;9.680;2024-01-10T14:32:01;11.77;;;7.73;;
7875;SDS011;69649;53.712;9.680;2024-01-10T14:34:27;11.37;;;8.50;;
7875;SDS011;69649;53.712;9.680;2024-01-10T14:36:53;11.57;;;8.10;;
7875;SDS011;69649;53.712;9.680;2024-01-10T14:39:18;12.40;;;8.03;;
7875;SDS011;69649;53.712;9.680;2024-01-10T14:41:44;12.23;;;8.47;;
7875;SDS011;69649;53.712;9.680;2024-01-10T14:44:10;13.53;;;9.17;;
7875;SDS011;69649;53.712;9.680;2024-01-10T14:46:36;14.90;;;9.73;;
7875;SDS011;69649;53.712;9.680;2024-01-10T14:49:02;14.37;;;9.27;;
7875;SDS011;69649;53.712;9.680;2024-01-10T14:51:27;14.17;;;9.73;;
7875;SDS011;69649;53.712;9.680;2024-01-10T14:53:53;12.50;;;9.40;;
7875;SDS011;69649;53.712;9.680;2024-01-10T14:56:19;13.33;;;9.07;;
7875;SDS011;69649;53.712;9.680;2024-01-10T14:58:45;15.27;;;10.07;;
7875;SDS011;69649;53.712;9.680;2024-01-10T15:01:11;13.07;;;9.10;;
7875;SDS011;69649;53.712;9.680;2024-01-10T15:03:37;17.23;;;9.37;;
7875;SDS011;69649;53.712;9.680;2024-01-10T15:06:06;14.37;;;9.20;;
7875;SDS011;69649;53.712;9.680;2024-01-10T15:08:32;13.70;;;9.10;;
7875;SDS011;69649;53.712;9.680;2024-01-10T15:11:01;15.67;;;9.50;;
7875;SDS011;69649;53.712;9.680;2024-01-10T15:13:27;12.60;;;8.90;;
7875;SDS011;69649;53.712;9.680;2024-01-10T15:15:53;12.90;;;8.63;;
7875;SDS011;69649;53.712;9.680;2024-01-10T15:18:19;10.53;;;7.90;;
7875;SDS011;69649;53.712;9.680;2024-01-10T15:20:46;15.03;;;9.27;;
7875;SDS011;69649;53.712;9.680;2024-01-10T15:25:57;9.90;;;7.97;;
7875;SDS011;69649;53.712;9.680;2024-01-10T15:28:23;14.53;;;10.47;;
7875;SDS011;69649;53.712;9.680;2024-01-10T15:30:49;12.00;;;9.07;;
7875;SDS011;69649;53.712;9.680;2024-01-10T15:33:16;12.17;;;8.80;;
7875;SDS011;69649;53.712;9.680;2024-01-10T15:35:43;16.80;;;10.87;;
7875;SDS011;69649;53.712;9.680;2024-01-10T15:38:09;15.90;;;9.77;;